Yerkes, Kentucky
Current Conditions -  °F | °C
As of 1:53 PM on Thursday 30 Oct 2014 (Local Time) from KJKL Reporting Station
Overcast Overcast  
Wind Chill: 51°   Ceiling: 3500
Heat Index: 51°   Visibility: 10mi
Dew Point: 34°   Wind: 3mph
Humidity: 52%   Direction: NA
Pressure: 30.1"   Gusts: NA
Location:  37.28°N, 83.3°W
Report Text: KJKL 301753Z AUTO VRB03KT 10SM OVC035 11/01 A3010 RMK AO2 SLP193 T01060011 10122 20033 58017
Loading
Personal Weather Stations






























Interactive Weather Map
Tropical Storm Tracking
New forecast layout! Learn more

10-Day Weather Forecast

Advertisements
Track Severe Weather on mobile